ENAN/ANX METAR and TAF weather

Enter ICAO airport designator
Station Type Date Time Source
ENAN METAR 2022/01/29 01:50 UTC NOAA

ENAN 290150Z AUTO 14015KT 9999 NCD M04/M08 Q0993


Station Type Date Time Source
ENAN Decoded METAR 2022/01/29 01:50 UTC NOAA

Andoya, Norway (ENAN) 69-18N 016-09E 14M
Jan 28, 2022 - 08:50 PM EST / 2022.01.29 0150 UTC
Wind: from the SE (140 degrees) at 17 MPH (15 KT):0
Visibility: greater than 7 mile(s):0
Temperature: 24 F (-4 C)
Windchill: 10 F (-12 C):1
Dew Point: 17 F (-8 C)
Relative Humidity: 73%
Pressure (altimeter): 29.32 in. Hg (0993 hPa)
ob: ENAN 290150Z AUTO 14015KT 9999 NCD M04/M08 Q0993
cycle: 2

Station Type Date Time Source
ENAN TAF 2022/01/28 19:12 UTC NOAA

TAF TAF
AMD ENAN 2819/2918 21008KT 9999 FEW010 BKN050 PROB40
TEMPO 2819/2901 4000 -SHSN BKN010 SCT020CB
BECMG 2900/2902 12020KT

Example: see airport list